sensor_id;sensor_type;location;lat;lon;timestamp;P1;durP1;ratioP1;P2;durP2;ratioP2
79373;SDS011;68844;53.128;17.958;2023-06-22T00:01:19;3.00;;;2.10;;
79373;SDS011;68844;53.128;17.958;2023-06-22T00:03:47;2.10;;;1.90;;
79373;SDS011;68844;53.128;17.958;2023-06-22T00:06:14;2.40;;;2.20;;
79373;SDS011;68844;53.128;17.958;2023-06-22T00:08:41;2.70;;;2.50;;
79373;SDS011;68844;53.128;17.958;2023-06-22T00:11:08;2.60;;;2.40;;
79373;SDS011;68844;53.128;17.958;2023-06-22T00:13:34;3.00;;;2.40;;
79373;SDS011;68844;53.128;17.958;2023-06-22T00:16:01;2.90;;;2.60;;
79373;SDS011;68844;53.128;17.958;2023-06-22T00:18:28;2.60;;;2.40;;
79373;SDS011;68844;53.128;17.958;2023-06-22T00:20:56;2.90;;;2.70;;
79373;SDS011;68844;53.128;17.958;2023-06-22T00:23:24;2.90;;;2.70;;
79373;SDS011;68844;53.128;17.958;2023-06-22T00:25:51;2.90;;;2.50;;
79373;SDS011;68844;53.128;17.958;2023-06-22T00:28:19;2.60;;;2.40;;
79373;SDS011;68844;53.128;17.958;2023-06-22T00:30:46;2.70;;;2.40;;
79373;SDS011;68844;53.128;17.958;2023-06-22T00:33:12;3.40;;;2.60;;
79373;SDS011;68844;53.128;17.958;2023-06-22T00:38:08;2.70;;;2.50;;
79373;SDS011;68844;53.128;17.958;2023-06-22T00:40:35;2.60;;;2.30;;
79373;SDS011;68844;53.128;17.958;2023-06-22T00:43:02;3.10;;;2.60;;
79373;SDS011;68844;53.128;17.958;2023-06-22T00:45:29;4.10;;;2.40;;
79373;SDS011;68844;53.128;17.958;2023-06-22T00:47:57;2.60;;;2.20;;
79373;SDS011;68844;53.128;17.958;2023-06-22T00:50:26;2.60;;;2.40;;
79373;SDS011;68844;53.128;17.958;2023-06-22T00:52:55;2.70;;;2.50;;
79373;SDS011;68844;53.128;17.958;2023-06-22T00:55:23;2.80;;;2.20;;
79373;SDS011;68844;53.128;17.958;2023-06-22T00:57:52;2.30;;;2.10;;
79373;SDS011;68844;53.128;17.958;2023-06-22T01:00:23;2.40;;;2.20;;
79373;SDS011;68844;53.128;17.958;2023-06-22T01:02:51;3.30;;;2.80;;
79373;SDS011;68844;53.128;17.958;2023-06-22T01:05:20;2.40;;;2.00;;
79373;SDS011;68844;53.128;17.958;2023-06-22T01:10:16;2.30;;;2.00;;
79373;SDS011;68844;53.128;17.958;2023-06-22T01:12:52;3.00;;;2.80;;
79373;SDS011;68844;53.128;17.958;2023-06-22T01:18:03;2.60;;;2.30;;
79373;SDS011;68844;53.128;17.958;2023-06-22T01:20:32;4.20;;;2.10;;
79373;SDS011;68844;53.128;17.958;2023-06-22T01:29:25;2.80;;;2.20;;
79373;SDS011;68844;53.128;17.958;2023-06-22T01:31:54;2.20;;;2.00;;
79373;SDS011;68844;53.128;17.958;2023-06-22T01:34:24;2.00;;;1.80;;
79373;SDS011;68844;53.128;17.958;2023-06-22T01:36:51;2.10;;;1.90;;
79373;SDS011;68844;53.128;17.958;2023-06-22T01:41:47;2.40;;;2.20;;
79373;SDS011;68844;53.128;17.958;2023-06-22T01:44:15;2.30;;;1.60;;
79373;SDS011;68844;53.128;17.958;2023-06-22T01:46:42;2.10;;;1.90;;
79373;SDS011;68844;53.128;17.958;2023-06-22T01:49:10;2.30;;;1.60;;
79373;SDS011;68844;53.128;17.958;2023-06-22T01:51:37;2.00;;;1.80;;
79373;SDS011;68844;53.128;17.958;2023-06-22T01:54:05;2.10;;;1.90;;
79373;SDS011;68844;53.128;17.958;2023-06-22T01:56:33;3.00;;;1.70;;
79373;SDS011;68844;53.128;17.958;2023-06-22T02:01:50;2.10;;;1.80;;
79373;SDS011;68844;53.128;17.958;2023-06-22T02:04:28;2.50;;;1.90;;
79373;SDS011;68844;53.128;17.958;2023-06-22T02:07:04;1.90;;;1.70;;
79373;SDS011;68844;53.128;17.958;2023-06-22T02:09:35;2.00;;;1.80;;
79373;SDS011;68844;53.128;17.958;2023-06-22T02:12:05;2.20;;;1.90;;
79373;SDS011;68844;53.128;17.958;2023-06-22T02:14:34;1.80;;;1.60;;
79373;SDS011;68844;53.128;17.958;2023-06-22T02:17:03;1.70;;;1.40;;
79373;SDS011;68844;53.128;17.958;2023-06-22T02:19:37;2.00;;;1.80;;
79373;SDS011;68844;53.128;17.958;2023-06-22T02:22:05;2.00;;;1.80;;
79373;SDS011;68844;53.128;17.958;2023-06-22T02:24:32;2.20;;;1.70;;
79373;SDS011;68844;53.128;17.958;2023-06-22T02:27:00;1.90;;;1.60;;
79373;SDS011;68844;53.128;17.958;2023-06-22T02:29:28;1.80;;;1.70;;
79373;SDS011;68844;53.128;17.958;2023-06-22T02:31:55;2.00;;;1.80;;
79373;SDS011;68844;53.128;17.958;2023-06-22T02:34:22;2.20;;;2.00;;
79373;SDS011;68844;53.128;17.958;2023-06-22T02:36:50;2.90;;;1.80;;
79373;SDS011;68844;53.128;17.958;2023-06-22T02:39:21;3.20;;;1.60;;
79373;SDS011;68844;53.128;17.958;2023-06-22T02:41:50;2.40;;;1.70;;
79373;SDS011;68844;53.128;17.958;2023-06-22T02:44:17;2.00;;;1.80;;
79373;SDS011;68844;53.128;17.958;2023-06-22T02:46:45;2.70;;;2.10;;
79373;SDS011;68844;53.128;17.958;2023-06-22T02:49:14;1.80;;;1.20;;
79373;SDS011;68844;53.128;17.958;2023-06-22T02:51:47;2.00;;;1.40;;
79373;SDS011;68844;53.128;17.958;2023-06-22T02:54:17;1.50;;;1.30;;
79373;SDS011;68844;53.128;17.958;2023-06-22T02:56:44;1.90;;;1.60;;
79373;SDS011;68844;53.128;17.958;2023-06-22T02:59:11;2.60;;;1.40;;
79373;SDS011;68844;53.128;17.958;2023-06-22T03:01:38;1.70;;;1.50;;
79373;SDS011;68844;53.128;17.958;2023-06-22T03:04:09;2.50;;;1.20;;
79373;SDS011;68844;53.128;17.958;2023-06-22T03:06:36;1.70;;;1.30;;
79373;SDS011;68844;53.128;17.958;2023-06-22T03:09:03;1.90;;;1.40;;
79373;SDS011;68844;53.128;17.958;2023-06-22T03:11:31;1.80;;;1.20;;
79373;SDS011;68844;53.128;17.958;2023-06-22T03:13:59;2.40;;;1.30;;
79373;SDS011;68844;53.128;17.958;2023-06-22T03:16:28;1.80;;;1.20;;
79373;SDS011;68844;53.128;17.958;2023-06-22T03:18:56;2.00;;;1.40;;
79373;SDS011;68844;53.128;17.958;2023-06-22T03:21:23;1.00;;;0.90;;
79373;SDS011;68844;53.128;17.958;2023-06-22T03:23:52;1.50;;;1.10;;
79373;SDS011;68844;53.128;17.958;2023-06-22T03:26:19;1.60;;;1.20;;
79373;SDS011;68844;53.128;17.958;2023-06-22T03:28:46;1.60;;;1.00;;
79373;SDS011;68844;53.128;17.958;2023-06-22T03:31:13;1.50;;;1.20;;
79373;SDS011;68844;53.128;17.958;2023-06-22T03:33:40;1.30;;;1.00;;
79373;SDS011;68844;53.128;17.958;2023-06-22T03:36:07;1.40;;;1.10;;
79373;SDS011;68844;53.128;17.958;2023-06-22T03:38:35;1.70;;;1.20;;
79373;SDS011;68844;53.128;17.958;2023-06-22T03:41:01;2.10;;;1.50;;
79373;SDS011;68844;53.128;17.958;2023-06-22T03:43:29;1.30;;;1.10;;
79373;SDS011;68844;53.128;17.958;2023-06-22T03:45:56;1.80;;;0.90;;
79373;SDS011;68844;53.128;17.958;2023-06-22T03:48:23;1.20;;;0.90;;
79373;SDS011;68844;53.128;17.958;2023-06-22T03:50:49;1.50;;;1.10;;
79373;SDS011;68844;53.128;17.958;2023-06-22T03:53:16;1.30;;;0.90;;
79373;SDS011;68844;53.128;17.958;2023-06-22T03:55:50;1.20;;;0.80;;
79373;SDS011;68844;53.128;17.958;2023-06-22T03:58:18;1.40;;;0.90;;
79373;SDS011;68844;53.128;17.958;2023-06-22T04:00:47;1.30;;;0.80;;
79373;SDS011;68844;53.128;17.958;2023-06-22T04:03:15;1.10;;;0.80;;
79373;SDS011;68844;53.128;17.958;2023-06-22T04:05:42;1.90;;;1.10;;
79373;SDS011;68844;53.128;17.958;2023-06-22T04:08:09;1.10;;;0.80;;
79373;SDS011;68844;53.128;17.958;2023-06-22T04:10:35;1.10;;;0.60;;
79373;SDS011;68844;53.128;17.958;2023-06-22T04:13:02;1.30;;;0.90;;
79373;SDS011;68844;53.128;17.958;2023-06-22T04:15:29;2.50;;;0.80;;
79373;SDS011;68844;53.128;17.958;2023-06-22T04:17:56;1.80;;;0.80;;
79373;SDS011;68844;53.128;17.958;2023-06-22T04:22:53;2.10;;;0.90;;
79373;SDS011;68844;53.128;17.958;2023-06-22T04:25:20;1.80;;;1.20;;
79373;SDS011;68844;53.128;17.958;2023-06-22T04:27:48;1.40;;;0.70;;
79373;SDS011;68844;53.128;17.958;2023-06-22T04:30:15;1.30;;;0.90;;
79373;SDS011;68844;53.128;17.958;2023-06-22T04:32:42;1.10;;;0.80;;
79373;SDS011;68844;53.128;17.958;2023-06-22T04:35:10;1.80;;;0.60;;
79373;SDS011;68844;53.128;17.958;2023-06-22T04:37:38;1.90;;;0.90;;
79373;SDS011;68844;53.128;17.958;2023-06-22T04:42:33;2.00;;;1.10;;
79373;SDS011;68844;53.128;17.958;2023-06-22T04:45:02;2.00;;;0.70;;
79373;SDS011;68844;53.128;17.958;2023-06-22T04:47:29;1.00;;;0.60;;
79373;SDS011;68844;53.128;17.958;2023-06-22T04:49:55;1.40;;;0.80;;
79373;SDS011;68844;53.128;17.958;2023-06-22T04:52:22;1.50;;;0.80;;
79373;SDS011;68844;53.128;17.958;2023-06-22T04:54:51;1.90;;;0.80;;
79373;SDS011;68844;53.128;17.958;2023-06-22T04:57:21;1.80;;;0.80;;
79373;SDS011;68844;53.128;17.958;2023-06-22T04:59:59;1.30;;;0.80;;
79373;SDS011;68844;53.128;17.958;2023-06-22T05:02:38;1.10;;;0.70;;
79373;SDS011;68844;53.128;17.958;2023-06-22T05:05:05;0.90;;;0.70;;
79373;SDS011;68844;53.128;17.958;2023-06-22T05:07:33;1.30;;;0.80;;
79373;SDS011;68844;53.128;17.958;2023-06-22T05:10:01;1.40;;;0.90;;
79373;SDS011;68844;53.128;17.958;2023-06-22T05:12:29;1.30;;;0.70;;
79373;SDS011;68844;53.128;17.958;2023-06-22T05:14:56;1.20;;;0.80;;
79373;SDS011;68844;53.128;17.958;2023-06-22T05:17:24;1.00;;;0.70;;
79373;SDS011;68844;53.128;17.958;2023-06-22T05:22:17;1.00;;;0.90;;
79373;SDS011;68844;53.128;17.958;2023-06-22T05:24:45;1.80;;;0.80;;
79373;SDS011;68844;53.128;17.958;2023-06-22T05:27:12;0.90;;;0.70;;
79373;SDS011;68844;53.128;17.958;2023-06-22T05:29:39;2.80;;;0.90;;
79373;SDS011;68844;53.128;17.958;2023-06-22T05:32:06;1.10;;;0.70;;
79373;SDS011;68844;53.128;17.958;2023-06-22T05:34:33;1.10;;;0.70;;
79373;SDS011;68844;53.128;17.958;2023-06-22T05:36:59;1.90;;;0.70;;
79373;SDS011;68844;53.128;17.958;2023-06-22T05:39:26;0.80;;;0.50;;
79373;SDS011;68844;53.128;17.958;2023-06-22T05:41:53;2.40;;;0.80;;
79373;SDS011;68844;53.128;17.958;2023-06-22T05:44:20;1.20;;;0.80;;
79373;SDS011;68844;53.128;17.958;2023-06-22T05:46:47;1.00;;;0.90;;
79373;SDS011;68844;53.128;17.958;2023-06-22T05:49:14;0.80;;;0.60;;
79373;SDS011;68844;53.128;17.958;2023-06-22T05:51:42;0.80;;;0.70;;
79373;SDS011;68844;53.128;17.958;2023-06-22T05:54:09;1.50;;;0.90;;
79373;SDS011;68844;53.128;17.958;2023-06-22T05:56:36;1.00;;;0.70;;
79373;SDS011;68844;53.128;17.958;2023-06-22T05:59:03;1.90;;;0.60;;
79373;SDS011;68844;53.128;17.958;2023-06-22T06:01:30;1.60;;;0.80;;
79373;SDS011;68844;53.128;17.958;2023-06-22T06:04:02;2.00;;;0.60;;
79373;SDS011;68844;53.128;17.958;2023-06-22T06:06:30;1.30;;;0.80;;
79373;SDS011;68844;53.128;17.958;2023-06-22T06:08:57;1.10;;;0.70;;
79373;SDS011;68844;53.128;17.958;2023-06-22T06:11:23;0.90;;;0.60;;
79373;SDS011;68844;53.128;17.958;2023-06-22T06:16:18;1.00;;;0.60;;
79373;SDS011;68844;53.128;17.958;2023-06-22T06:18:44;1.90;;;0.60;;
79373;SDS011;68844;53.128;17.958;2023-06-22T06:21:11;1.20;;;0.70;;
79373;SDS011;68844;53.128;17.958;2023-06-22T06:23:38;1.40;;;0.70;;
79373;SDS011;68844;53.128;17.958;2023-06-22T06:26:04;1.50;;;0.80;;
79373;SDS011;68844;53.128;17.958;2023-06-22T06:28:33;0.90;;;0.60;;
79373;SDS011;68844;53.128;17.958;2023-06-22T06:31:00;1.00;;;0.70;;
79373;SDS011;68844;53.128;17.958;2023-06-22T06:33:27;0.60;;;0.50;;
79373;SDS011;68844;53.128;17.958;2023-06-22T06:35:53;0.60;;;0.60;;
79373;SDS011;68844;53.128;17.958;2023-06-22T06:38:22;1.20;;;0.60;;
79373;SDS011;68844;53.128;17.958;2023-06-22T06:40:49;0.70;;;0.50;;
79373;SDS011;68844;53.128;17.958;2023-06-22T06:43:16;0.60;;;0.60;;
79373;SDS011;68844;53.128;17.958;2023-06-22T06:45:46;0.90;;;0.50;;
79373;SDS011;68844;53.128;17.958;2023-06-22T06:48:13;0.80;;;0.50;;
79373;SDS011;68844;53.128;17.958;2023-06-22T06:50:39;0.70;;;0.40;;
79373;SDS011;68844;53.128;17.958;2023-06-22T06:53:06;0.60;;;0.40;;
79373;SDS011;68844;53.128;17.958;2023-06-22T06:55:33;0.70;;;0.40;;
79373;SDS011;68844;53.128;17.958;2023-06-22T06:57:59;0.80;;;0.50;;
79373;SDS011;68844;53.128;17.958;2023-06-22T07:00:27;1.50;;;0.40;;
79373;SDS011;68844;53.128;17.958;2023-06-22T07:02:54;1.20;;;0.50;;
79373;SDS011;68844;53.128;17.958;2023-06-22T07:05:20;1.30;;;0.80;;
79373;SDS011;68844;53.128;17.958;2023-06-22T07:07:47;0.80;;;0.70;;
79373;SDS011;68844;53.128;17.958;2023-06-22T07:10:14;0.80;;;0.60;;
79373;SDS011;68844;53.128;17.958;2023-06-22T07:12:41;0.90;;;0.50;;
79373;SDS011;68844;53.128;17.958;2023-06-22T07:15:08;1.10;;;0.40;;
79373;SDS011;68844;53.128;17.958;2023-06-22T07:17:36;0.70;;;0.50;;
79373;SDS011;68844;53.128;17.958;2023-06-22T07:20:03;1.40;;;0.50;;
79373;SDS011;68844;53.128;17.958;2023-06-22T07:22:39;1.00;;;0.60;;
79373;SDS011;68844;53.128;17.958;2023-06-22T07:25:07;1.30;;;0.50;;
79373;SDS011;68844;53.128;17.958;2023-06-22T07:30:27;0.90;;;0.50;;
79373;SDS011;68844;53.128;17.958;2023-06-22T07:32:55;0.80;;;0.40;;
79373;SDS011;68844;53.128;17.958;2023-06-22T07:35:21;1.60;;;0.50;;
79373;SDS011;68844;53.128;17.958;2023-06-22T07:37:48;0.90;;;0.50;;
79373;SDS011;68844;53.128;17.958;2023-06-22T07:40:15;0.70;;;0.30;;
79373;SDS011;68844;53.128;17.958;2023-06-22T07:42:42;0.70;;;0.50;;
79373;SDS011;68844;53.128;17.958;2023-06-22T07:45:08;0.90;;;0.50;;
79373;SDS011;68844;53.128;17.958;2023-06-22T07:47:35;0.90;;;0.40;;
79373;SDS011;68844;53.128;17.958;2023-06-22T07:50:02;0.70;;;0.50;;
79373;SDS011;68844;53.128;17.958;2023-06-22T07:52:30;1.10;;;0.60;;
79373;SDS011;68844;53.128;17.958;2023-06-22T07:54:57;1.10;;;0.50;;
79373;SDS011;68844;53.128;17.958;2023-06-22T07:57:24;0.50;;;0.40;;
79373;SDS011;68844;53.128;17.958;2023-06-22T08:00:11;0.90;;;0.50;;
79373;SDS011;68844;53.128;17.958;2023-06-22T08:02:41;0.50;;;0.50;;
79373;SDS011;68844;53.128;17.958;2023-06-22T08:05:09;1.00;;;0.50;;
79373;SDS011;68844;53.128;17.958;2023-06-22T08:07:38;1.10;;;0.50;;
79373;SDS011;68844;53.128;17.958;2023-06-22T08:12:31;1.00;;;0.50;;
79373;SDS011;68844;53.128;17.958;2023-06-22T08:14:58;1.00;;;0.50;;
79373;SDS011;68844;53.128;17.958;2023-06-22T08:17:25;0.80;;;0.50;;
79373;SDS011;68844;53.128;17.958;2023-06-22T08:19:52;2.10;;;0.70;;
79373;SDS011;68844;53.128;17.958;2023-06-22T08:22:19;1.00;;;0.40;;
79373;SDS011;68844;53.128;17.958;2023-06-22T08:24:46;0.50;;;0.40;;
79373;SDS011;68844;53.128;17.958;2023-06-22T08:27:13;0.70;;;0.50;;
79373;SDS011;68844;53.128;17.958;2023-06-22T08:29:40;1.00;;;0.40;;
79373;SDS011;68844;53.128;17.958;2023-06-22T08:32:08;1.10;;;0.60;;
79373;SDS011;68844;53.128;17.958;2023-06-22T08:34:36;1.20;;;0.60;;
79373;SDS011;68844;53.128;17.958;2023-06-22T08:37:03;0.60;;;0.50;;
79373;SDS011;68844;53.128;17.958;2023-06-22T08:39:32;0.80;;;0.60;;
79373;SDS011;68844;53.128;17.958;2023-06-22T08:41:59;0.60;;;0.40;;
79373;SDS011;68844;53.128;17.958;2023-06-22T08:44:26;1.00;;;0.50;;
79373;SDS011;68844;53.128;17.958;2023-06-22T08:46:52;1.00;;;0.60;;
79373;SDS011;68844;53.128;17.958;2023-06-22T08:49:19;0.80;;;0.50;;
79373;SDS011;68844;53.128;17.958;2023-06-22T08:51:46;1.50;;;0.50;;
79373;SDS011;68844;53.128;17.958;2023-06-22T08:54:15;0.70;;;0.50;;
79373;SDS011;68844;53.128;17.958;2023-06-22T08:56:42;1.40;;;0.60;;
79373;SDS011;68844;53.128;17.958;2023-06-22T08:59:10;0.80;;;0.60;;
79373;SDS011;68844;53.128;17.958;2023-06-22T09:01:37;0.80;;;0.50;;
79373;SDS011;68844;53.128;17.958;2023-06-22T09:04:03;1.80;;;0.40;;
79373;SDS011;68844;53.128;17.958;2023-06-22T09:06:32;1.90;;;0.50;;
79373;SDS011;68844;53.128;17.958;2023-06-22T09:08:59;0.90;;;0.50;;
79373;SDS011;68844;53.128;17.958;2023-06-22T09:11:28;1.10;;;0.60;;
79373;SDS011;68844;53.128;17.958;2023-06-22T09:13:55;0.80;;;0.50;;
79373;SDS011;68844;53.128;17.958;2023-06-22T09:16:22;2.00;;;0.60;;
79373;SDS011;68844;53.128;17.958;2023-06-22T09:18:48;1.90;;;0.60;;
79373;SDS011;68844;53.128;17.958;2023-06-22T09:21:15;0.80;;;0.70;;
79373;SDS011;68844;53.128;17.958;2023-06-22T09:23:42;1.10;;;0.50;;
79373;SDS011;68844;53.128;17.958;2023-06-22T09:26:09;0.90;;;0.40;;
79373;SDS011;68844;53.128;17.958;2023-06-22T09:28:36;0.60;;;0.50;;
79373;SDS011;68844;53.128;17.958;2023-06-22T09:31:02;0.70;;;0.50;;
79373;SDS011;68844;53.128;17.958;2023-06-22T09:33:29;1.20;;;0.60;;
79373;SDS011;68844;53.128;17.958;2023-06-22T09:35:56;1.80;;;0.70;;
79373;SDS011;68844;53.128;17.958;2023-06-22T09:38:22;0.80;;;0.40;;
79373;SDS011;68844;53.128;17.958;2023-06-22T09:40:49;0.60;;;0.40;;
79373;SDS011;68844;53.128;17.958;2023-06-22T09:43:16;0.50;;;0.40;;
79373;SDS011;68844;53.128;17.958;2023-06-22T09:45:43;0.70;;;0.50;;
79373;SDS011;68844;53.128;17.958;2023-06-22T09:48:10;1.60;;;0.30;;
79373;SDS011;68844;53.128;17.958;2023-06-22T09:50:36;0.80;;;0.50;;
79373;SDS011;68844;53.128;17.958;2023-06-22T09:53:03;1.00;;;0.30;;
79373;SDS011;68844;53.128;17.958;2023-06-22T09:55:32;1.40;;;0.50;;
79373;SDS011;68844;53.128;17.958;2023-06-22T09:58:02;1.10;;;0.50;;
79373;SDS011;68844;53.128;17.958;2023-06-22T10:00:29;0.90;;;0.60;;
79373;SDS011;68844;53.128;17.958;2023-06-22T10:02:55;0.70;;;0.50;;
79373;SDS011;68844;53.128;17.958;2023-06-22T10:05:23;0.70;;;0.50;;
79373;SDS011;68844;53.128;17.958;2023-06-22T10:07:51;0.70;;;0.50;;
79373;SDS011;68844;53.128;17.958;2023-06-22T10:10:17;0.80;;;0.40;;
79373;SDS011;68844;53.128;17.958;2023-06-22T10:12:48;1.00;;;0.30;;
79373;SDS011;68844;53.128;17.958;2023-06-22T10:15:21;0.90;;;0.40;;
79373;SDS011;68844;53.128;17.958;2023-06-22T10:17:48;0.60;;;0.30;;
79373;SDS011;68844;53.128;17.958;2023-06-22T10:20:15;0.60;;;0.30;;
79373;SDS011;68844;53.128;17.958;2023-06-22T10:22:44;0.60;;;0.40;;
79373;SDS011;68844;53.128;17.958;2023-06-22T10:25:12;1.00;;;0.40;;
79373;SDS011;68844;53.128;17.958;2023-06-22T10:27:39;1.30;;;0.60;;
79373;SDS011;68844;53.128;17.958;2023-06-22T10:30:07;0.80;;;0.50;;
79373;SDS011;68844;53.128;17.958;2023-06-22T10:32:39;1.30;;;0.40;;
79373;SDS011;68844;53.128;17.958;2023-06-22T10:35:06;0.90;;;0.50;;
79373;SDS011;68844;53.128;17.958;2023-06-22T10:37:33;1.20;;;0.50;;
79373;SDS011;68844;53.128;17.958;2023-06-22T10:40:00;1.70;;;0.40;;
79373;SDS011;68844;53.128;17.958;2023-06-22T10:42:26;1.30;;;0.50;;
79373;SDS011;68844;53.128;17.958;2023-06-22T10:44:53;0.50;;;0.40;;
79373;SDS011;68844;53.128;17.958;2023-06-22T10:47:20;0.90;;;0.30;;
79373;SDS011;68844;53.128;17.958;2023-06-22T10:49:46;0.50;;;0.30;;
79373;SDS011;68844;53.128;17.958;2023-06-22T10:52:13;0.80;;;0.40;;
79373;SDS011;68844;53.128;17.958;2023-06-22T10:54:40;0.80;;;0.40;;
79373;SDS011;68844;53.128;17.958;2023-06-22T10:57:07;0.50;;;0.30;;
79373;SDS011;68844;53.128;17.958;2023-06-22T10:59:34;1.00;;;0.60;;
79373;SDS011;68844;53.128;17.958;2023-06-22T11:02:01;0.70;;;0.40;;
79373;SDS011;68844;53.128;17.958;2023-06-22T11:06:55;0.90;;;0.50;;
79373;SDS011;68844;53.128;17.958;2023-06-22T11:09:22;0.60;;;0.50;;
79373;SDS011;68844;53.128;17.958;2023-06-22T11:11:50;1.20;;;0.60;;
79373;SDS011;68844;53.128;17.958;2023-06-22T11:14:21;1.30;;;0.60;;
79373;SDS011;68844;53.128;17.958;2023-06-22T11:16:48;1.40;;;0.40;;
79373;SDS011;68844;53.128;17.958;2023-06-22T11:19:15;0.80;;;0.50;;
79373;SDS011;68844;53.128;17.958;2023-06-22T11:21:42;1.00;;;0.50;;
79373;SDS011;68844;53.128;17.958;2023-06-22T11:24:09;1.10;;;0.40;;
79373;SDS011;68844;53.128;17.958;2023-06-22T11:26:36;1.90;;;0.50;;
79373;SDS011;68844;53.128;17.958;2023-06-22T11:31:33;1.10;;;0.50;;
79373;SDS011;68844;53.128;17.958;2023-06-22T11:34:03;1.20;;;0.50;;
79373;SDS011;68844;53.128;17.958;2023-06-22T11:36:30;0.70;;;0.50;;
79373;SDS011;68844;53.128;17.958;2023-06-22T11:38:59;0.70;;;0.30;;
79373;SDS011;68844;53.128;17.958;2023-06-22T11:41:26;0.80;;;0.40;;
79373;SDS011;68844;53.128;17.958;2023-06-22T11:43:53;1.70;;;0.60;;
79373;SDS011;68844;53.128;17.958;2023-06-22T11:46:19;1.20;;;0.40;;
79373;SDS011;68844;53.128;17.958;2023-06-22T11:48:47;1.60;;;0.40;;
79373;SDS011;68844;53.128;17.958;2023-06-22T11:51:13;0.70;;;0.40;;
79373;SDS011;68844;53.128;17.958;2023-06-22T11:53:40;1.40;;;0.30;;
79373;SDS011;68844;53.128;17.958;2023-06-22T11:56:07;0.80;;;0.40;;
79373;SDS011;68844;53.128;17.958;2023-06-22T11:58:34;0.70;;;0.50;;
79373;SDS011;68844;53.128;17.958;2023-06-22T12:01:00;0.50;;;0.30;;
79373;SDS011;68844;53.128;17.958;2023-06-22T12:03:27;1.10;;;0.60;;
79373;SDS011;68844;53.128;17.958;2023-06-22T12:05:54;2.70;;;0.80;;
79373;SDS011;68844;53.128;17.958;2023-06-22T12:08:20;1.30;;;0.50;;
79373;SDS011;68844;53.128;17.958;2023-06-22T12:10:48;0.70;;;0.40;;
79373;SDS011;68844;53.128;17.958;2023-06-22T12:13:16;1.40;;;0.50;;
79373;SDS011;68844;53.128;17.958;2023-06-22T12:15:42;1.30;;;0.60;;
79373;SDS011;68844;53.128;17.958;2023-06-22T12:18:09;1.20;;;0.50;;
79373;SDS011;68844;53.128;17.958;2023-06-22T12:20:36;0.60;;;0.30;;
79373;SDS011;68844;53.128;17.958;2023-06-22T12:23:03;1.20;;;0.30;;
79373;SDS011;68844;53.128;17.958;2023-06-22T12:25:30;1.00;;;0.60;;
79373;SDS011;68844;53.128;17.958;2023-06-22T12:27:56;1.70;;;0.50;;
79373;SDS011;68844;53.128;17.958;2023-06-22T12:30:23;1.10;;;0.40;;
79373;SDS011;68844;53.128;17.958;2023-06-22T12:32:50;1.10;;;0.70;;
79373;SDS011;68844;53.128;17.958;2023-06-22T12:35:17;1.30;;;0.60;;
79373;SDS011;68844;53.128;17.958;2023-06-22T12:37:44;2.00;;;0.70;;
79373;SDS011;68844;53.128;17.958;2023-06-22T12:40:11;0.80;;;0.40;;
79373;SDS011;68844;53.128;17.958;2023-06-22T12:42:38;1.00;;;0.40;;
79373;SDS011;68844;53.128;17.958;2023-06-22T12:45:05;0.60;;;0.40;;
79373;SDS011;68844;53.128;17.958;2023-06-22T12:47:32;0.80;;;0.50;;
79373;SDS011;68844;53.128;17.958;2023-06-22T12:49:59;1.00;;;0.50;;
79373;SDS011;68844;53.128;17.958;2023-06-22T12:52:25;1.70;;;0.50;;
79373;SDS011;68844;53.128;17.958;2023-06-22T12:54:52;1.40;;;0.70;;
79373;SDS011;68844;53.128;17.958;2023-06-22T12:57:20;1.50;;;0.50;;
79373;SDS011;68844;53.128;17.958;2023-06-22T12:59:47;1.40;;;0.40;;
79373;SDS011;68844;53.128;17.958;2023-06-22T13:02:14;0.90;;;0.50;;
79373;SDS011;68844;53.128;17.958;2023-06-22T13:04:40;1.10;;;0.40;;
79373;SDS011;68844;53.128;17.958;2023-06-22T13:07:07;0.70;;;0.40;;
79373;SDS011;68844;53.128;17.958;2023-06-22T13:09:35;0.90;;;0.60;;
79373;SDS011;68844;53.128;17.958;2023-06-22T13:12:03;0.70;;;0.50;;
79373;SDS011;68844;53.128;17.958;2023-06-22T13:14:30;0.90;;;0.40;;
79373;SDS011;68844;53.128;17.958;2023-06-22T13:16:57;2.00;;;0.60;;
79373;SDS011;68844;53.128;17.958;2023-06-22T13:19:23;0.80;;;0.40;;
79373;SDS011;68844;53.128;17.958;2023-06-22T13:21:50;0.80;;;0.60;;
79373;SDS011;68844;53.128;17.958;2023-06-22T13:24:17;1.40;;;0.60;;
79373;SDS011;68844;53.128;17.958;2023-06-22T13:26:44;1.10;;;0.60;;
79373;SDS011;68844;53.128;17.958;2023-06-22T13:29:10;0.70;;;0.50;;
79373;SDS011;68844;53.128;17.958;2023-06-22T13:31:37;1.00;;;0.60;;
79373;SDS011;68844;53.128;17.958;2023-06-22T13:34:04;1.00;;;0.50;;
79373;SDS011;68844;53.128;17.958;2023-06-22T13:36:31;1.40;;;0.60;;
79373;SDS011;68844;53.128;17.958;2023-06-22T13:38:58;1.20;;;0.50;;
79373;SDS011;68844;53.128;17.958;2023-06-22T13:41:25;1.10;;;0.50;;
79373;SDS011;68844;53.128;17.958;2023-06-22T13:43:52;0.90;;;0.50;;
79373;SDS011;68844;53.128;17.958;2023-06-22T13:46:18;0.70;;;0.40;;
79373;SDS011;68844;53.128;17.958;2023-06-22T13:48:45;0.80;;;0.60;;
79373;SDS011;68844;53.128;17.958;2023-06-22T13:51:12;1.00;;;0.40;;
79373;SDS011;68844;53.128;17.958;2023-06-22T13:53:39;0.70;;;0.50;;
79373;SDS011;68844;53.128;17.958;2023-06-22T13:56:05;1.00;;;0.50;;
79373;SDS011;68844;53.128;17.958;2023-06-22T13:58:32;0.80;;;0.50;;
79373;SDS011;68844;53.128;17.958;2023-06-22T14:00:59;1.00;;;0.70;;
79373;SDS011;68844;53.128;17.958;2023-06-22T14:03:25;0.70;;;0.50;;
79373;SDS011;68844;53.128;17.958;2023-06-22T14:05:52;0.80;;;0.30;;
79373;SDS011;68844;53.128;17.958;2023-06-22T14:08:22;1.40;;;0.50;;
79373;SDS011;68844;53.128;17.958;2023-06-22T14:10:50;0.70;;;0.50;;
79373;SDS011;68844;53.128;17.958;2023-06-22T14:13:16;0.80;;;0.50;;
79373;SDS011;68844;53.128;17.958;2023-06-22T14:15:43;1.30;;;0.70;;
79373;SDS011;68844;53.128;17.958;2023-06-22T14:18:10;1.40;;;0.50;;
79373;SDS011;68844;53.128;17.958;2023-06-22T14:20:37;3.60;;;0.70;;
79373;SDS011;68844;53.128;17.958;2023-06-22T14:23:04;1.00;;;0.60;;
79373;SDS011;68844;53.128;17.958;2023-06-22T14:25:30;1.10;;;0.60;;
79373;SDS011;68844;53.128;17.958;2023-06-22T14:27:57;1.30;;;0.40;;
79373;SDS011;68844;53.128;17.958;2023-06-22T14:30:24;1.30;;;0.50;;
79373;SDS011;68844;53.128;17.958;2023-06-22T14:32:50;0.90;;;0.60;;
79373;SDS011;68844;53.128;17.958;2023-06-22T14:35:21;0.90;;;0.40;;
79373;SDS011;68844;53.128;17.958;2023-06-22T14:37:49;1.10;;;0.50;;
79373;SDS011;68844;53.128;17.958;2023-06-22T14:40:17;1.00;;;0.60;;
79373;SDS011;68844;53.128;17.958;2023-06-22T14:42:44;1.00;;;0.50;;
79373;SDS011;68844;53.128;17.958;2023-06-22T14:45:12;0.90;;;0.50;;
79373;SDS011;68844;53.128;17.958;2023-06-22T14:47:39;1.30;;;0.60;;
79373;SDS011;68844;53.128;17.958;2023-06-22T14:50:06;0.80;;;0.50;;
79373;SDS011;68844;53.128;17.958;2023-06-22T14:52:33;1.40;;;0.80;;
79373;SDS011;68844;53.128;17.958;2023-06-22T14:55:00;1.00;;;0.60;;
79373;SDS011;68844;53.128;17.958;2023-06-22T14:57:27;1.90;;;0.80;;
79373;SDS011;68844;53.128;17.958;2023-06-22T14:59:53;0.80;;;0.60;;
79373;SDS011;68844;53.128;17.958;2023-06-22T15:02:20;0.70;;;0.50;;
79373;SDS011;68844;53.128;17.958;2023-06-22T15:04:47;0.70;;;0.40;;
79373;SDS011;68844;53.128;17.958;2023-06-22T15:07:14;0.90;;;0.70;;
79373;SDS011;68844;53.128;17.958;2023-06-22T15:09:41;0.80;;;0.70;;
79373;SDS011;68844;53.128;17.958;2023-06-22T15:12:09;1.30;;;0.40;;
79373;SDS011;68844;53.128;17.958;2023-06-22T15:14:40;1.00;;;0.60;;